sensor_id;sensor_type;location;lat;lon;timestamp;temperature;humidity
22418;DHT22;11376;50.932;4.442;2022-11-20T00:00:00;5.70;99.90
22418;DHT22;11376;50.932;4.442;2022-11-20T00:02:26;5.80;99.90
22418;DHT22;11376;50.932;4.442;2022-11-20T00:04:51;5.80;99.90
22418;DHT22;11376;50.932;4.442;2022-11-20T00:07:17;5.90;99.90
22418;DHT22;11376;50.932;4.442;2022-11-20T00:09:42;6.00;99.90
22418;DHT22;11376;50.932;4.442;2022-11-20T00:12:08;5.80;99.90
22418;DHT22;11376;50.932;4.442;2022-11-20T00:14:34;5.70;99.90
22418;DHT22;11376;50.932;4.442;2022-11-20T00:17:00;5.70;99.90
22418;DHT22;11376;50.932;4.442;2022-11-20T00:19:25;5.70;99.90
22418;DHT22;11376;50.932;4.442;2022-11-20T00:21:51;5.60;99.90
22418;DHT22;11376;50.932;4.442;2022-11-20T00:24:19;5.60;99.90
22418;DHT22;11376;50.932;4.442;2022-11-20T00:26:44;5.70;99.90
22418;DHT22;11376;50.932;4.442;2022-11-20T00:29:10;5.60;99.90
22418;DHT22;11376;50.932;4.442;2022-11-20T00:31:36;5.70;99.90
22418;DHT22;11376;50.932;4.442;2022-11-20T00:34:02;5.80;99.90
22418;DHT22;11376;50.932;4.442;2022-11-20T00:36:29;5.90;99.90
22418;DHT22;11376;50.932;4.442;2022-11-20T00:38:58;6.00;99.90
22418;DHT22;11376;50.932;4.442;2022-11-20T00:41:24;6.00;99.90
22418;DHT22;11376;50.932;4.442;2022-11-20T00:43:51;5.90;99.90
22418;DHT22;11376;50.932;4.442;2022-11-20T00:46:19;6.00;99.90
22418;DHT22;11376;50.932;4.442;2022-11-20T00:48:48;5.90;99.90
22418;DHT22;11376;50.932;4.442;2022-11-20T00:51:18;5.80;99.90
22418;DHT22;11376;50.932;4.442;2022-11-20T00:53:44;5.70;99.90
22418;DHT22;11376;50.932;4.442;2022-11-20T00:56:15;5.70;99.90
22418;DHT22;11376;50.932;4.442;2022-11-20T00:58:43;5.70;99.90
22418;DHT22;11376;50.932;4.442;2022-11-20T01:01:19;5.80;99.90
22418;DHT22;11376;50.932;4.442;2022-11-20T01:03:46;5.90;99.90
22418;DHT22;11376;50.932;4.442;2022-11-20T01:06:15;5.90;99.90
22418;DHT22;11376;50.932;4.442;2022-11-20T01:08:41;5.90;99.90
22418;DHT22;11376;50.932;4.442;2022-11-20T01:11:10;6.00;99.90
22418;DHT22;11376;50.932;4.442;2022-11-20T01:13:37;5.80;99.90
22418;DHT22;11376;50.932;4.442;2022-11-20T01:16:15;5.80;99.90
22418;DHT22;11376;50.932;4.442;2022-11-20T01:18:44;5.70;99.90
22418;DHT22;11376;50.932;4.442;2022-11-20T01:21:21;5.70;99.90
22418;DHT22;11376;50.932;4.442;2022-11-20T01:23:48;5.70;99.90
22418;DHT22;11376;50.932;4.442;2022-11-20T01:26:19;5.70;99.90
22418;DHT22;11376;50.932;4.442;2022-11-20T01:28:46;5.70;99.90
22418;DHT22;11376;50.932;4.442;2022-11-20T01:31:13;5.70;99.90
22418;DHT22;11376;50.932;4.442;2022-11-20T01:33:40;5.80;99.90
22418;DHT22;11376;50.932;4.442;2022-11-20T01:36:07;5.70;99.90
22418;DHT22;11376;50.932;4.442;2022-11-20T01:38:33;5.80;99.90
22418;DHT22;11376;50.932;4.442;2022-11-20T01:40:58;5.70;99.90
22418;DHT22;11376;50.932;4.442;2022-11-20T01:43:24;5.80;99.90
22418;DHT22;11376;50.932;4.442;2022-11-20T01:48:23;5.70;99.90
22418;DHT22;11376;50.932;4.442;2022-11-20T01:50:52;5.70;99.90
22418;DHT22;11376;50.932;4.442;2022-11-20T01:53:21;5.70;99.90
22418;DHT22;11376;50.932;4.442;2022-11-20T01:55:52;5.70;99.90
22418;DHT22;11376;50.932;4.442;2022-11-20T01:58:25;5.60;99.90
22418;DHT22;11376;50.932;4.442;2022-11-20T02:00:52;5.70;99.90
22418;DHT22;11376;50.932;4.442;2022-11-20T02:03:19;5.80;99.90
22418;DHT22;11376;50.932;4.442;2022-11-20T02:06:23;5.80;99.90
22418;DHT22;11376;50.932;4.442;2022-11-20T02:08:50;5.70;99.90
22418;DHT22;11376;50.932;4.442;2022-11-20T02:11:16;5.50;99.90
22418;DHT22;11376;50.932;4.442;2022-11-20T02:13:41;5.40;99.90
22418;DHT22;11376;50.932;4.442;2022-11-20T02:16:23;5.40;99.90
22418;DHT22;11376;50.932;4.442;2022-11-20T02:18:49;5.50;99.90
22418;DHT22;11376;50.932;4.442;2022-11-20T02:26:20;5.60;99.90
22418;DHT22;11376;50.932;4.442;2022-11-20T02:28:48;5.30;99.90
22418;DHT22;11376;50.932;4.442;2022-11-20T02:31:14;5.00;99.90
22418;DHT22;11376;50.932;4.442;2022-11-20T02:33:39;5.00;99.90
22418;DHT22;11376;50.932;4.442;2022-11-20T02:36:07;5.00;99.90
22418;DHT22;11376;50.932;4.442;2022-11-20T02:38:33;4.80;99.90
22418;DHT22;11376;50.932;4.442;2022-11-20T02:40:59;4.70;99.90
22418;DHT22;11376;50.932;4.442;2022-11-20T02:43:24;4.70;99.90
22418;DHT22;11376;50.932;4.442;2022-11-20T02:45:50;4.60;99.90
22418;DHT22;11376;50.932;4.442;2022-11-20T02:48:16;4.40;99.90
22418;DHT22;11376;50.932;4.442;2022-11-20T02:50:41;4.40;99.90
22418;DHT22;11376;50.932;4.442;2022-11-20T02:53:08;4.30;99.90
22418;DHT22;11376;50.932;4.442;2022-11-20T02:55:33;4.30;99.90
22418;DHT22;11376;50.932;4.442;2022-11-20T02:57:59;4.30;99.90
22418;DHT22;11376;50.932;4.442;2022-11-20T03:00:25;4.30;99.90
22418;DHT22;11376;50.932;4.442;2022-11-20T03:02:50;4.30;99.90
22418;DHT22;11376;50.932;4.442;2022-11-20T03:05:19;4.20;99.90
22418;DHT22;11376;50.932;4.442;2022-11-20T03:07:45;4.40;99.90
22418;DHT22;11376;50.932;4.442;2022-11-20T03:10:11;4.40;99.90
22418;DHT22;11376;50.932;4.442;2022-11-20T03:12:36;4.40;99.90
22418;DHT22;11376;50.932;4.442;2022-11-20T03:15:02;4.50;99.90
22418;DHT22;11376;50.932;4.442;2022-11-20T03:17:28;4.50;99.90
22418;DHT22;11376;50.932;4.442;2022-11-20T03:19:54;4.40;99.90
22418;DHT22;11376;50.932;4.442;2022-11-20T03:22:20;4.40;99.90
22418;DHT22;11376;50.932;4.442;2022-11-20T03:24:46;4.50;99.90
22418;DHT22;11376;50.932;4.442;2022-11-20T03:27:11;4.30;99.90
22418;DHT22;11376;50.932;4.442;2022-11-20T03:29:37;4.30;99.90
22418;DHT22;11376;50.932;4.442;2022-11-20T03:32:02;4.30;99.90
22418;DHT22;11376;50.932;4.442;2022-11-20T03:34:28;4.30;99.90
22418;DHT22;11376;50.932;4.442;2022-11-20T03:36:54;4.40;99.90
22418;DHT22;11376;50.932;4.442;2022-11-20T03:39:19;4.30;99.90
22418;DHT22;11376;50.932;4.442;2022-11-20T03:41:45;4.30;99.90
22418;DHT22;11376;50.932;4.442;2022-11-20T03:44:11;4.50;99.90
22418;DHT22;11376;50.932;4.442;2022-11-20T03:46:37;4.40;99.90
22418;DHT22;11376;50.932;4.442;2022-11-20T03:49:04;4.40;99.90
22418;DHT22;11376;50.932;4.442;2022-11-20T03:51:32;4.20;99.90
22418;DHT22;11376;50.932;4.442;2022-11-20T03:54:01;4.10;99.90
22418;DHT22;11376;50.932;4.442;2022-11-20T03:56:33;4.00;99.90
22418;DHT22;11376;50.932;4.442;2022-11-20T03:58:59;4.10;99.90
22418;DHT22;11376;50.932;4.442;2022-11-20T04:01:27;4.10;99.90
22418;DHT22;11376;50.932;4.442;2022-11-20T04:03:55;4.10;99.90
22418;DHT22;11376;50.932;4.442;2022-11-20T04:06:26;4.10;99.90
22418;DHT22;11376;50.932;4.442;2022-11-20T04:08:54;4.10;99.90
22418;DHT22;11376;50.932;4.442;2022-11-20T04:11:26;4.10;99.90
22418;DHT22;11376;50.932;4.442;2022-11-20T04:14:03;4.10;99.90
22418;DHT22;11376;50.932;4.442;2022-11-20T04:16:31;4.10;99.90
22418;DHT22;11376;50.932;4.442;2022-11-20T04:18:59;4.20;99.90
22418;DHT22;11376;50.932;4.442;2022-11-20T04:21:25;4.30;99.90
22418;DHT22;11376;50.932;4.442;2022-11-20T04:23:52;4.40;99.90
22418;DHT22;11376;50.932;4.442;2022-11-20T04:26:19;4.50;99.90
22418;DHT22;11376;50.932;4.442;2022-11-20T04:28:45;4.50;99.90
22418;DHT22;11376;50.932;4.442;2022-11-20T04:31:14;4.70;99.90
22418;DHT22;11376;50.932;4.442;2022-11-20T04:33:41;4.80;99.90
22418;DHT22;11376;50.932;4.442;2022-11-20T04:38:37;5.10;99.90
22418;DHT22;11376;50.932;4.442;2022-11-20T04:41:05;5.20;99.90
22418;DHT22;11376;50.932;4.442;2022-11-20T04:43:32;5.30;99.90
22418;DHT22;11376;50.932;4.442;2022-11-20T04:45:58;5.20;99.90
22418;DHT22;11376;50.932;4.442;2022-11-20T04:48:25;5.30;99.90
22418;DHT22;11376;50.932;4.442;2022-11-20T04:50:52;5.40;99.90
22418;DHT22;11376;50.932;4.442;2022-11-20T04:53:18;5.40;99.90
22418;DHT22;11376;50.932;4.442;2022-11-20T04:55:44;5.50;99.90
22418;DHT22;11376;50.932;4.442;2022-11-20T04:58:10;5.50;99.90
22418;DHT22;11376;50.932;4.442;2022-11-20T05:00:35;5.60;99.90
22418;DHT22;11376;50.932;4.442;2022-11-20T05:03:01;5.50;99.90
22418;DHT22;11376;50.932;4.442;2022-11-20T05:05:27;5.50;99.90
22418;DHT22;11376;50.932;4.442;2022-11-20T05:07:53;5.50;99.90
22418;DHT22;11376;50.932;4.442;2022-11-20T05:10:20;5.60;99.90
22418;DHT22;11376;50.932;4.442;2022-11-20T05:12:46;5.70;99.90
22418;DHT22;11376;50.932;4.442;2022-11-20T05:15:14;5.80;99.90
22418;DHT22;11376;50.932;4.442;2022-11-20T05:17:50;5.80;99.90
22418;DHT22;11376;50.932;4.442;2022-11-20T05:20:17;5.70;99.90
22418;DHT22;11376;50.932;4.442;2022-11-20T05:22:45;5.80;99.90
22418;DHT22;11376;50.932;4.442;2022-11-20T05:25:11;5.50;99.90
22418;DHT22;11376;50.932;4.442;2022-11-20T05:27:37;5.40;99.90
22418;DHT22;11376;50.932;4.442;2022-11-20T05:30:07;5.50;99.90
22418;DHT22;11376;50.932;4.442;2022-11-20T05:32:33;5.70;99.90
22418;DHT22;11376;50.932;4.442;2022-11-20T05:34:59;5.90;99.90
22418;DHT22;11376;50.932;4.442;2022-11-20T05:37:24;6.10;99.90
22418;DHT22;11376;50.932;4.442;2022-11-20T05:39:50;6.10;99.90
22418;DHT22;11376;50.932;4.442;2022-11-20T05:42:16;6.20;99.90
22418;DHT22;11376;50.932;4.442;2022-11-20T05:44:57;6.20;99.90
22418;DHT22;11376;50.932;4.442;2022-11-20T05:47:23;6.20;99.90
22418;DHT22;11376;50.932;4.442;2022-11-20T05:49:49;6.10;99.90
22418;DHT22;11376;50.932;4.442;2022-11-20T05:52:15;6.00;99.90
22418;DHT22;11376;50.932;4.442;2022-11-20T05:54:40;5.80;99.90
22418;DHT22;11376;50.932;4.442;2022-11-20T05:57:06;5.80;99.90
22418;DHT22;11376;50.932;4.442;2022-11-20T05:59:32;5.70;99.90
22418;DHT22;11376;50.932;4.442;2022-11-20T06:01:58;5.60;99.90
22418;DHT22;11376;50.932;4.442;2022-11-20T06:04:23;5.30;99.90
22418;DHT22;11376;50.932;4.442;2022-11-20T06:06:49;5.20;99.90
22418;DHT22;11376;50.932;4.442;2022-11-20T06:09:15;5.40;99.90
22418;DHT22;11376;50.932;4.442;2022-11-20T06:11:40;5.40;99.90
22418;DHT22;11376;50.932;4.442;2022-11-20T06:14:06;5.40;99.90
22418;DHT22;11376;50.932;4.442;2022-11-20T06:16:32;5.50;99.90
22418;DHT22;11376;50.932;4.442;2022-11-20T06:18:57;5.50;99.90
22418;DHT22;11376;50.932;4.442;2022-11-20T06:21:23;5.60;99.90
22418;DHT22;11376;50.932;4.442;2022-11-20T06:23:51;5.70;99.90
22418;DHT22;11376;50.932;4.442;2022-11-20T06:26:25;5.70;99.90
22418;DHT22;11376;50.932;4.442;2022-11-20T06:28:53;5.60;99.90
22418;DHT22;11376;50.932;4.442;2022-11-20T06:31:22;5.60;99.90
22418;DHT22;11376;50.932;4.442;2022-11-20T06:33:49;5.60;99.90
22418;DHT22;11376;50.932;4.442;2022-11-20T06:36:16;5.60;99.90
22418;DHT22;11376;50.932;4.442;2022-11-20T06:38:42;5.80;99.90
22418;DHT22;11376;50.932;4.442;2022-11-20T06:41:14;5.90;99.90
22418;DHT22;11376;50.932;4.442;2022-11-20T06:43:40;6.10;99.90
22418;DHT22;11376;50.932;4.442;2022-11-20T06:46:06;6.20;99.90
22418;DHT22;11376;50.932;4.442;2022-11-20T06:48:32;6.20;99.90
22418;DHT22;11376;50.932;4.442;2022-11-20T06:50:58;6.30;99.90
22418;DHT22;11376;50.932;4.442;2022-11-20T06:53:24;6.30;99.90
22418;DHT22;11376;50.932;4.442;2022-11-20T06:55:50;6.30;99.90
22418;DHT22;11376;50.932;4.442;2022-11-20T06:58:17;6.50;99.90
22418;DHT22;11376;50.932;4.442;2022-11-20T07:00:44;6.40;99.90
22418;DHT22;11376;50.932;4.442;2022-11-20T07:03:11;6.40;99.90
22418;DHT22;11376;50.932;4.442;2022-11-20T07:05:37;6.50;99.90
22418;DHT22;11376;50.932;4.442;2022-11-20T07:08:04;6.40;99.90
22418;DHT22;11376;50.932;4.442;2022-11-20T07:10:30;6.40;99.90
22418;DHT22;11376;50.932;4.442;2022-11-20T07:12:59;6.20;99.90
22418;DHT22;11376;50.932;4.442;2022-11-20T07:15:25;6.00;99.90
22418;DHT22;11376;50.932;4.442;2022-11-20T07:17:51;5.90;99.90
22418;DHT22;11376;50.932;4.442;2022-11-20T07:20:17;5.80;99.90
22418;DHT22;11376;50.932;4.442;2022-11-20T07:22:43;5.80;99.90
22418;DHT22;11376;50.932;4.442;2022-11-20T07:25:09;5.80;99.90
22418;DHT22;11376;50.932;4.442;2022-11-20T07:27:35;5.70;99.90
22418;DHT22;11376;50.932;4.442;2022-11-20T07:30:02;5.80;99.90
22418;DHT22;11376;50.932;4.442;2022-11-20T07:32:28;6.00;99.90
22418;DHT22;11376;50.932;4.442;2022-11-20T07:34:53;5.90;99.90
22418;DHT22;11376;50.932;4.442;2022-11-20T07:37:19;6.00;99.90
22418;DHT22;11376;50.932;4.442;2022-11-20T07:39:44;6.20;99.90
22418;DHT22;11376;50.932;4.442;2022-11-20T07:42:10;6.10;99.90
22418;DHT22;11376;50.932;4.442;2022-11-20T07:44:38;6.10;99.90
22418;DHT22;11376;50.932;4.442;2022-11-20T07:47:04;6.00;99.90
22418;DHT22;11376;50.932;4.442;2022-11-20T07:49:29;6.10;99.90
22418;DHT22;11376;50.932;4.442;2022-11-20T07:51:55;6.20;99.90
22418;DHT22;11376;50.932;4.442;2022-11-20T07:54:21;6.10;99.90
22418;DHT22;11376;50.932;4.442;2022-11-20T07:56:48;6.30;99.90
22418;DHT22;11376;50.932;4.442;2022-11-20T07:59:14;6.50;99.90
22418;DHT22;11376;50.932;4.442;2022-11-20T08:01:40;6.50;99.90
22418;DHT22;11376;50.932;4.442;2022-11-20T08:04:06;6.70;99.90
22418;DHT22;11376;50.932;4.442;2022-11-20T08:06:31;6.60;99.90
22418;DHT22;11376;50.932;4.442;2022-11-20T08:08:57;6.60;99.90
22418;DHT22;11376;50.932;4.442;2022-11-20T08:11:23;6.60;99.90
22418;DHT22;11376;50.932;4.442;2022-11-20T08:14:07;6.60;99.90
22418;DHT22;11376;50.932;4.442;2022-11-20T08:16:43;6.70;99.90
22418;DHT22;11376;50.932;4.442;2022-11-20T08:19:09;6.80;99.90
22418;DHT22;11376;50.932;4.442;2022-11-20T08:21:35;6.80;99.90
22418;DHT22;11376;50.932;4.442;2022-11-20T08:24:01;6.90;99.90
22418;DHT22;11376;50.932;4.442;2022-11-20T08:26:26;6.90;99.90
22418;DHT22;11376;50.932;4.442;2022-11-20T08:28:56;6.70;99.90
22418;DHT22;11376;50.932;4.442;2022-11-20T08:31:24;6.70;99.90
22418;DHT22;11376;50.932;4.442;2022-11-20T08:33:50;6.90;99.90
22418;DHT22;11376;50.932;4.442;2022-11-20T08:36:16;6.80;99.90
22418;DHT22;11376;50.932;4.442;2022-11-20T08:38:50;6.70;99.90
22418;DHT22;11376;50.932;4.442;2022-11-20T08:41:16;6.70;99.90
22418;DHT22;11376;50.932;4.442;2022-11-20T08:43:57;6.70;99.90
22418;DHT22;11376;50.932;4.442;2022-11-20T08:46:25;6.60;99.90
22418;DHT22;11376;50.932;4.442;2022-11-20T08:48:52;6.60;99.90
22418;DHT22;11376;50.932;4.442;2022-11-20T08:51:18;6.60;99.90
22418;DHT22;11376;50.932;4.442;2022-11-20T08:53:44;6.80;99.90
22418;DHT22;11376;50.932;4.442;2022-11-20T08:56:10;6.90;99.90
22418;DHT22;11376;50.932;4.442;2022-11-20T08:58:37;7.00;99.90
22418;DHT22;11376;50.932;4.442;2022-11-20T09:01:02;6.90;99.90
22418;DHT22;11376;50.932;4.442;2022-11-20T09:03:28;7.00;99.90
22418;DHT22;11376;50.932;4.442;2022-11-20T09:06:02;6.80;99.90
22418;DHT22;11376;50.932;4.442;2022-11-20T09:08:28;6.70;99.90
22418;DHT22;11376;50.932;4.442;2022-11-20T09:10:55;6.70;99.90
22418;DHT22;11376;50.932;4.442;2022-11-20T09:13:22;6.70;99.90
22418;DHT22;11376;50.932;4.442;2022-11-20T09:15:53;6.90;99.90
22418;DHT22;11376;50.932;4.442;2022-11-20T09:18:19;6.90;99.90
22418;DHT22;11376;50.932;4.442;2022-11-20T09:20:45;7.00;99.90
22418;DHT22;11376;50.932;4.442;2022-11-20T09:23:10;7.10;99.90
22418;DHT22;11376;50.932;4.442;2022-11-20T09:25:36;7.30;99.90
22418;DHT22;11376;50.932;4.442;2022-11-20T09:28:01;7.40;99.90
22418;DHT22;11376;50.932;4.442;2022-11-20T09:30:27;7.60;99.90
22418;DHT22;11376;50.932;4.442;2022-11-20T09:32:53;7.60;99.90
22418;DHT22;11376;50.932;4.442;2022-11-20T09:35:18;7.50;99.90
22418;DHT22;11376;50.932;4.442;2022-11-20T09:37:45;7.30;99.90
22418;DHT22;11376;50.932;4.442;2022-11-20T09:40:29;7.50;99.90
22418;DHT22;11376;50.932;4.442;2022-11-20T09:43:20;7.70;99.90
22418;DHT22;11376;50.932;4.442;2022-11-20T09:49:17;8.10;99.90
22418;DHT22;11376;50.932;4.442;2022-11-20T09:52:00;8.10;99.90
22418;DHT22;11376;50.932;4.442;2022-11-20T09:54:33;8.20;99.90
22418;DHT22;11376;50.932;4.442;2022-11-20T09:57:11;8.20;99.90
22418;DHT22;11376;50.932;4.442;2022-11-20T09:59:46;8.30;99.90
22418;DHT22;11376;50.932;4.442;2022-11-20T10:02:26;8.30;99.90
22418;DHT22;11376;50.932;4.442;2022-11-20T10:07:25;8.30;99.90
22418;DHT22;11376;50.932;4.442;2022-11-20T10:09:55;8.30;99.90
22418;DHT22;11376;50.932;4.442;2022-11-20T10:16:00;8.30;99.90
22418;DHT22;11376;50.932;4.442;2022-11-20T10:18:28;8.40;99.90
22418;DHT22;11376;50.932;4.442;2022-11-20T10:23:44;8.50;99.90
22418;DHT22;11376;50.932;4.442;2022-11-20T10:26:22;8.50;99.90
22418;DHT22;11376;50.932;4.442;2022-11-20T10:31:36;8.80;99.90
22418;DHT22;11376;50.932;4.442;2022-11-20T10:37:00;8.90;99.90
22418;DHT22;11376;50.932;4.442;2022-11-20T10:39:41;9.20;99.90
22418;DHT22;11376;50.932;4.442;2022-11-20T10:42:17;9.40;99.90
22418;DHT22;11376;50.932;4.442;2022-11-20T10:44:52;9.30;99.90
22418;DHT22;11376;50.932;4.442;2022-11-20T10:47:28;9.40;99.90
22418;DHT22;11376;50.932;4.442;2022-11-20T10:49:56;9.70;99.90
22418;DHT22;11376;50.932;4.442;2022-11-20T10:55:15;10.60;99.90
22418;DHT22;11376;50.932;4.442;2022-11-20T10:57:48;10.40;99.90
22418;DHT22;11376;50.932;4.442;2022-11-20T11:00:17;10.50;99.90
22418;DHT22;11376;50.932;4.442;2022-11-20T11:02:47;10.60;99.90
22418;DHT22;11376;50.932;4.442;2022-11-20T11:05:42;10.30;99.90
22418;DHT22;11376;50.932;4.442;2022-11-20T11:08:17;10.10;99.90
22418;DHT22;11376;50.932;4.442;2022-11-20T11:10:51;9.90;99.90
22418;DHT22;11376;50.932;4.442;2022-11-20T11:13:20;9.70;99.90
22418;DHT22;11376;50.932;4.442;2022-11-20T11:15:46;9.60;99.90
22418;DHT22;11376;50.932;4.442;2022-11-20T11:18:22;9.50;99.90
22418;DHT22;11376;50.932;4.442;2022-11-20T11:20:53;9.60;99.90
22418;DHT22;11376;50.932;4.442;2022-11-20T11:23:34;9.70;99.90
22418;DHT22;11376;50.932;4.442;2022-11-20T11:26:01;9.70;99.90
22418;DHT22;11376;50.932;4.442;2022-11-20T11:28:28;9.60;99.90
22418;DHT22;11376;50.932;4.442;2022-11-20T11:30:54;9.50;99.90
22418;DHT22;11376;50.932;4.442;2022-11-20T11:33:23;9.40;99.90
22418;DHT22;11376;50.932;4.442;2022-11-20T11:35:58;9.30;99.90
22418;DHT22;11376;50.932;4.442;2022-11-20T11:38:35;9.40;99.90
22418;DHT22;11376;50.932;4.442;2022-11-20T11:41:02;9.40;99.90
22418;DHT22;11376;50.932;4.442;2022-11-20T11:43:34;9.50;99.90
22418;DHT22;11376;50.932;4.442;2022-11-20T11:46:33;9.70;99.90
22418;DHT22;11376;50.932;4.442;2022-11-20T11:56:53;9.40;99.90
22418;DHT22;11376;50.932;4.442;2022-11-20T11:59:33;9.40;99.90
22418;DHT22;11376;50.932;4.442;2022-11-20T12:02:15;9.40;99.90
22418;DHT22;11376;50.932;4.442;2022-11-20T12:04:55;9.30;99.90
22418;DHT22;11376;50.932;4.442;2022-11-20T12:07:27;9.30;99.90
22418;DHT22;11376;50.932;4.442;2022-11-20T12:09:56;9.20;99.90
22418;DHT22;11376;50.932;4.442;2022-11-20T12:12:34;9.10;99.90
22418;DHT22;11376;50.932;4.442;2022-11-20T12:15:02;9.00;99.90
22418;DHT22;11376;50.932;4.442;2022-11-20T12:17:29;9.00;99.90
22418;DHT22;11376;50.932;4.442;2022-11-20T12:19:55;9.00;99.90
22418;DHT22;11376;50.932;4.442;2022-11-20T12:22:42;8.90;99.90
22418;DHT22;11376;50.932;4.442;2022-11-20T12:25:16;8.70;99.90
22418;DHT22;11376;50.932;4.442;2022-11-20T12:27:58;8.50;99.90
22418;DHT22;11376;50.932;4.442;2022-11-20T12:30:27;8.40;99.90
22418;DHT22;11376;50.932;4.442;2022-11-20T12:54:57;8.00;99.90
22418;DHT22;11376;50.932;4.442;2022-11-20T12:57:49;8.00;99.90
22418;DHT22;11376;50.932;4.442;2022-11-20T13:00:19;8.00;99.90
22418;DHT22;11376;50.932;4.442;2022-11-20T13:08:40;8.10;99.90
22418;DHT22;11376;50.932;4.442;2022-11-20T13:17:25;8.30;99.90
22418;DHT22;11376;50.932;4.442;2022-11-20T13:19:56;8.40;99.90
22418;DHT22;11376;50.932;4.442;2022-11-20T13:25:32;8.30;99.90
22418;DHT22;11376;50.932;4.442;2022-11-20T13:28:00;8.30;99.90
22418;DHT22;11376;50.932;4.442;2022-11-20T13:30:27;8.20;99.90
22418;DHT22;11376;50.932;4.442;2022-11-20T13:33:06;8.20;99.90
22418;DHT22;11376;50.932;4.442;2022-11-20T13:35:40;8.20;99.90
22418;DHT22;11376;50.932;4.442;2022-11-20T13:38:12;8.20;99.90
22418;DHT22;11376;50.932;4.442;2022-11-20T13:43:34;8.20;99.90
22418;DHT22;11376;50.932;4.442;2022-11-20T13:46:09;8.10;99.90
22418;DHT22;11376;50.932;4.442;2022-11-20T13:54:19;8.00;99.90
22418;DHT22;11376;50.932;4.442;2022-11-20T14:02:00;8.00;99.90
22418;DHT22;11376;50.932;4.442;2022-11-20T14:04:36;8.10;99.90
22418;DHT22;11376;50.932;4.442;2022-11-20T14:07:05;8.00;99.90
22418;DHT22;11376;50.932;4.442;2022-11-20T14:09:33;8.10;99.90
22418;DHT22;11376;50.932;4.442;2022-11-20T14:11:59;8.10;99.90
22418;DHT22;11376;50.932;4.442;2022-11-20T14:14:28;8.10;99.90
22418;DHT22;11376;50.932;4.442;2022-11-20T14:19:32;8.10;99.90
22418;DHT22;11376;50.932;4.442;2022-11-20T14:24:39;8.20;99.90
22418;DHT22;11376;50.932;4.442;2022-11-20T14:27:04;8.20;99.90
22418;DHT22;11376;50.932;4.442;2022-11-20T14:29:37;8.20;99.90
22418;DHT22;11376;50.932;4.442;2022-11-20T14:32:04;8.20;99.90
22418;DHT22;11376;50.932;4.442;2022-11-20T14:34:32;8.20;99.90
22418;DHT22;11376;50.932;4.442;2022-11-20T14:37:06;8.30;99.90
22418;DHT22;11376;50.932;4.442;2022-11-20T14:39:37;8.30;99.90
22418;DHT22;11376;50.932;4.442;2022-11-20T14:42:23;8.30;99.90
22418;DHT22;11376;50.932;4.442;2022-11-20T14:44:50;8.40;99.90
22418;DHT22;11376;50.932;4.442;2022-11-20T14:47:21;8.30;99.90
22418;DHT22;11376;50.932;4.442;2022-11-20T14:49:49;8.30;99.90
22418;DHT22;11376;50.932;4.442;2022-11-20T14:52:21;8.30;99.90
22418;DHT22;11376;50.932;4.442;2022-11-20T14:54:50;8.30;99.90
22418;DHT22;11376;50.932;4.442;2022-11-20T14:59:50;8.30;99.90
22418;DHT22;11376;50.932;4.442;2022-11-20T15:02:16;8.30;99.90
22418;DHT22;11376;50.932;4.442;2022-11-20T15:04:49;8.20;99.90
22418;DHT22;11376;50.932;4.442;2022-11-20T15:07:31;8.20;99.90
22418;DHT22;11376;50.932;4.442;2022-11-20T15:10:04;8.30;99.90
22418;DHT22;11376;50.932;4.442;2022-11-20T15:12:36;8.30;99.90
22418;DHT22;11376;50.932;4.442;2022-11-20T15:15:04;8.30;99.90
22418;DHT22;11376;50.932;4.442;2022-11-20T15:17:32;8.40;99.90
22418;DHT22;11376;50.932;4.442;2022-11-20T15:19:59;8.40;99.90
22418;DHT22;11376;50.932;4.442;2022-11-20T15:22:25;8.40;99.90
22418;DHT22;11376;50.932;4.442;2022-11-20T15:24:50;8.50;99.90
22418;DHT22;11376;50.932;4.442;2022-11-20T15:27:16;8.50;99.90
22418;DHT22;11376;50.932;4.442;2022-11-20T15:29:42;8.60;99.90
22418;DHT22;11376;50.932;4.442;2022-11-20T15:32:08;8.60;99.90
22418;DHT22;11376;50.932;4.442;2022-11-20T15:34:34;8.60;99.90
22418;DHT22;11376;50.932;4.442;2022-11-20T15:36:59;8.70;99.90
22418;DHT22;11376;50.932;4.442;2022-11-20T15:39:25;8.70;99.90
22418;DHT22;11376;50.932;4.442;2022-11-20T15:41:51;8.80;99.90
22418;DHT22;11376;50.932;4.442;2022-11-20T15:44:16;8.80;99.90
22418;DHT22;11376;50.932;4.442;2022-11-20T15:46:42;8.80;99.90
22418;DHT22;11376;50.932;4.442;2022-11-20T15:49:14;8.80;99.90
22418;DHT22;11376;50.932;4.442;2022-11-20T15:51:46;8.80;99.90
22418;DHT22;11376;50.932;4.442;2022-11-20T15:54:13;8.80;99.90
22418;DHT22;11376;50.932;4.442;2022-11-20T15:56:39;8.70;99.90
22418;DHT22;11376;50.932;4.442;2022-11-20T15:59:05;8.80;99.90
22418;DHT22;11376;50.932;4.442;2022-11-20T16:01:31;8.80;99.90
22418;DHT22;11376;50.932;4.442;2022-11-20T16:03:56;8.90;99.90
22418;DHT22;11376;50.932;4.442;2022-11-20T16:06:22;8.90;99.90
22418;DHT22;11376;50.932;4.442;2022-11-20T16:08:48;8.90;99.90
22418;DHT22;11376;50.932;4.442;2022-11-20T16:11:15;8.90;99.90
22418;DHT22;11376;50.932;4.442;2022-11-20T16:13:41;8.90;99.90
22418;DHT22;11376;50.932;4.442;2022-11-20T16:16:28;8.90;99.90
22418;DHT22;11376;50.932;4.442;2022-11-20T16:18:56;8.90;99.90
22418;DHT22;11376;50.932;4.442;2022-11-20T16:21:21;8.90;99.90
22418;DHT22;11376;50.932;4.442;2022-11-20T16:23:53;8.90;99.90
22418;DHT22;11376;50.932;4.442;2022-11-20T16:26:19;8.90;99.90
22418;DHT22;11376;50.932;4.442;2022-11-20T16:28:46;8.90;99.90
22418;DHT22;11376;50.932;4.442;2022-11-20T16:31:16;8.90;99.90
22418;DHT22;11376;50.932;4.442;2022-11-20T16:33:43;8.90;99.90
22418;DHT22;11376;50.932;4.442;2022-11-20T16:36:14;8.90;99.90
22418;DHT22;11376;50.932;4.442;2022-11-20T16:38:40;8.80;99.90
22418;DHT22;11376;50.932;4.442;2022-11-20T16:41:07;8.80;99.90
22418;DHT22;11376;50.932;4.442;2022-11-20T16:43:44;8.80;99.90
22418;DHT22;11376;50.932;4.442;2022-11-20T16:46:10;8.80;99.90
22418;DHT22;11376;50.932;4.442;2022-11-20T16:48:36;8.90;99.90
22418;DHT22;11376;50.932;4.442;2022-11-20T16:51:01;8.90;99.90
22418;DHT22;11376;50.932;4.442;2022-11-20T16:53:27;8.90;99.90
22418;DHT22;11376;50.932;4.442;2022-11-20T16:55:52;8.80;99.90
22418;DHT22;11376;50.932;4.442;2022-11-20T16:58:18;8.80;99.90
22418;DHT22;11376;50.932;4.442;2022-11-20T17:00:45;8.80;99.90
22418;DHT22;11376;50.932;4.442;2022-11-20T17:03:10;8.80;99.90
22418;DHT22;11376;50.932;4.442;2022-11-20T17:05:38;8.80;99.90
22418;DHT22;11376;50.932;4.442;2022-11-20T17:08:04;8.70;99.90
22418;DHT22;11376;50.932;4.442;2022-11-20T17:10:29;8.80;99.90
22418;DHT22;11376;50.932;4.442;2022-11-20T17:12:55;8.90;99.90
22418;DHT22;11376;50.932;4.442;2022-11-20T17:15:20;8.80;99.90
22418;DHT22;11376;50.932;4.442;2022-11-20T17:17:46;8.80;99.90
22418;DHT22;11376;50.932;4.442;2022-11-20T17:20:12;8.80;99.90
22418;DHT22;11376;50.932;4.442;2022-11-20T17:22:37;8.70;99.90
22418;DHT22;11376;50.932;4.442;2022-11-20T17:25:03;8.70;99.90
22418;DHT22;11376;50.932;4.442;2022-11-20T17:27:29;8.60;99.90
22418;DHT22;11376;50.932;4.442;2022-11-20T17:29:55;8.50;99.90